Time;durP1;ratioP1;P1;durP2;ratioP2;P2;SDS_P1;SDS_P2;PMS_P1;PMS_P2;Temp;Humidity;BMP_temperature;BMP_pressure;BME280_temperature;BME280_humidity;BME280_pressure;Samples;Min_cycle;Max_cycle;Signal;HPM_P1;HPM_P2
2021/03/17 00:00:57;;;;;;;9.10;7.87;;;;;;;0.33;100.00;98393.09;4991542;28;20201;-69
2021/03/17 00:03:25;;;;;;;11.77;7.93;;;;;;;0.34;100.00;98403.41;4994159;28;20514;-69
2021/03/17 00:05:52;;;;;;;8.33;7.53;;;;;;;0.45;100.00;98396.75;4987106;28;20283;-67
2021/03/17 00:08:21;;;;;;;8.53;7.73;;;;;;;0.43;100.00;98402.03;4988002;28;20852;-68
2021/03/17 00:10:49;;;;;;;8.53;7.30;;;;;;;0.30;100.00;98390.66;4986153;28;20230;-68
2021/03/17 00:13:16;;;;;;;9.20;7.97;;;;;;;0.28;100.00;98394.19;4994080;28;20228;-68
2021/03/17 00:15:44;;;;;;;8.17;7.23;;;;;;;0.22;100.00;98381.53;4982463;28;20605;-68
2021/03/17 00:18:13;;;;;;;7.90;6.50;;;;;;;0.21;100.00;98374.63;4991897;28;20604;-68
2021/03/17 00:20:41;;;;;;;7.10;6.40;;;;;;;0.18;100.00;98372.16;4991089;28;20674;-69
2021/03/17 00:23:08;;;;;;;7.37;6.70;;;;;;;0.07;100.00;98351.13;4997958;28;20219;-68
2021/03/17 00:25:36;;;;;;;7.43;6.73;;;;;;;-0.02;100.00;98360.28;4994440;28;20605;-69
2021/03/17 00:28:08;;;;;;;7.67;5.90;;;;;;;0.19;100.00;98358.25;4994272;28;20687;-69
2021/03/17 00:30:36;;;;;;;7.53;6.83;;;;;;;0.00;100.00;98358.47;4995985;28;20228;-68
2021/03/17 00:33:07;;;;;;;7.80;7.03;;;;;;;-0.17;100.00;98352.44;4988785;28;20225;-67
2021/03/17 00:35:34;;;;;;;7.37;6.67;;;;;;;-0.23;100.00;98355.41;4993016;28;20204;-68
2021/03/17 00:38:01;;;;;;;8.03;6.70;;;;;;;-0.32;100.00;98358.53;4993405;28;20353;-67
2021/03/17 00:40:28;;;;;;;8.10;6.57;;;;;;;-0.35;100.00;98356.09;4991502;28;20647;-68
2021/03/17 00:42:55;;;;;;;6.77;6.07;;;;;;;-0.39;100.00;98355.41;4999477;28;20217;-69
2021/03/17 00:45:22;;;;;;;8.97;6.13;;;;;;;-0.49;100.00;98349.88;4989351;28;20426;-69
2021/03/17 00:47:50;;;;;;;7.03;6.07;;;;;;;-0.52;100.00;98349.22;4989542;28;20215;-69
2021/03/17 00:50:19;;;;;;;6.80;6.30;;;;;;;-0.65;100.00;98344.69;4989619;28;20225;-69
2021/03/17 00:52:53;;;;;;;6.70;5.97;;;;;;;-0.76;100.00;98347.03;4995199;28;20296;-69
2021/03/17 00:55:20;;;;;;;9.30;6.70;;;;;;;-0.76;100.00;98347.03;4994160;28;20222;-68
2021/03/17 00:57:47;;;;;;;7.80;6.63;;;;;;;-0.85;100.00;98348.38;4991239;28;20217;-69
2021/03/17 01:00:15;;;;;;;7.30;6.67;;;;;;;-0.83;100.00;98349.13;4994472;28;20205;-68
2021/03/17 01:02:42;;;;;;;7.07;6.40;;;;;;;-0.90;100.00;98333.03;4989974;28;20649;-68
2021/03/17 01:05:10;;;;;;;6.80;6.20;;;;;;;-0.88;100.00;98344.19;4986744;28;20250;-68
2021/03/17 01:07:38;;;;;;;7.00;6.47;;;;;;;-0.88;100.00;98351.13;4986495;28;20210;-68
2021/03/17 01:10:10;;;;;;;7.53;6.80;;;;;;;-1.07;100.00;98343.47;4994374;28;20217;-66
2021/03/17 01:12:37;;;;;;;6.97;6.37;;;;;;;-1.09;100.00;98346.19;4992604;28;20214;-69
2021/03/17 01:15:11;;;;;;;7.90;6.83;;;;;;;-1.13;100.00;98339.47;4998294;28;20201;-68
2021/03/17 01:17:38;;;;;;;8.20;6.37;;;;;;;-1.16;100.00;98339.59;4990841;28;20206;-69
2021/03/17 01:20:07;;;;;;;6.83;6.13;;;;;;;-1.21;100.00;98336.41;4989838;28;20276;-69
2021/03/17 01:22:34;;;;;;;7.57;6.67;;;;;;;-1.15;100.00;98335.25;4986474;28;20210;-68
2021/03/17 01:25:02;;;;;;;7.90;6.07;;;;;;;-1.19;100.00;98329.38;4988938;28;20669;-66
2021/03/17 01:27:29;;;;;;;5.70;5.23;;;;;;;-1.17;100.00;98330.97;4987434;28;20201;-68
2021/03/17 01:29:56;;;;;;;8.33;6.90;;;;;;;-1.14;100.00;98329.94;4984937;28;20237;-69
2021/03/17 01:32:23;;;;;;;6.77;6.10;;;;;;;-1.13;100.00;98338.63;4987700;28;20263;-68
2021/03/17 01:34:50;;;;;;;6.37;5.77;;;;;;;-1.08;100.00;98326.19;4988962;28;20257;-68
2021/03/17 01:37:17;;;;;;;7.37;6.57;;;;;;;-1.14;100.00;98331.72;4986763;28;20201;-69
2021/03/17 01:39:45;;;;;;;7.23;6.53;;;;;;;-1.18;100.00;98325.84;4982754;28;20249;-68
2021/03/17 01:42:14;;;;;;;6.97;6.37;;;;;;;-1.07;100.00;98330.47;4991017;28;20215;-68
2021/03/17 01:44:46;;;;;;;7.90;7.20;;;;;;;-1.10;100.00;98338.44;4983538;28;20713;-69
2021/03/17 01:47:14;;;;;;;7.57;6.83;;;;;;;-1.17;100.00;98328.38;4986718;28;20297;-68
2021/03/17 01:49:41;;;;;;;6.40;5.80;;;;;;;-1.19;100.00;98332.81;4981607;28;20552;-69
2021/03/17 01:52:08;;;;;;;6.53;5.93;;;;;;;-1.11;100.00;98326.38;4983151;28;20212;-67
2021/03/17 01:54:35;;;;;;;6.53;5.93;;;;;;;-1.03;100.00;98330.25;4985403;28;20244;-68
2021/03/17 01:57:03;;;;;;;6.93;6.33;;;;;;;-1.11;100.00;98323.75;4981818;28;20205;-68
2021/03/17 01:59:31;;;;;;;7.70;6.90;;;;;;;-1.14;100.00;98322.16;4989507;28;20236;-69
2021/03/17 02:01:59;;;;;;;8.10;6.83;;;;;;;-1.19;100.00;98317.22;4990139;28;20209;-69
2021/03/17 02:04:26;;;;;;;7.43;6.87;;;;;;;-1.05;100.00;98326.88;4982034;28;20648;-67
2021/03/17 02:06:53;;;;;;;8.47;7.67;;;;;;;-0.99;100.00;98314.47;4984961;28;20221;-69
2021/03/17 02:09:20;;;;;;;8.13;7.07;;;;;;;-1.08;100.00;98321.00;4984838;28;20243;-69
2021/03/17 02:11:55;;;;;;;7.47;6.70;;;;;;;-1.14;100.00;98316.13;4987426;28;20213;-69
2021/03/17 02:14:34;;;;;;;9.63;6.97;;;;;;;-1.14;100.00;98316.94;4983303;28;20929;-67
2021/03/17 02:17:05;;;;;;;7.67;6.93;;;;;;;-1.21;100.00;98321.66;4984197;28;20305;-68
2021/03/17 02:20:04;;;;;;;7.30;6.67;;;;;;;-1.26;100.00;98317.63;5001588;28;20961;-69
2021/03/17 02:22:47;;;;;;;10.57;7.27;;;;;;;-1.26;100.00;98317.63;4982746;28;20201;-69
2021/03/17 02:25:40;;;;;;;8.30;7.50;;;;;;;-1.32;100.00;98311.00;4987390;28;20209;-69
2021/03/17 02:28:33;;;;;;;7.27;6.57;;;;;;;-1.17;100.00;98323.16;4977086;28;20205;-69
2021/03/17 02:31:29;;;;;;;10.87;8.13;;;;;;;-1.30;100.00;98316.97;4984485;28;20371;-67
2021/03/17 02:34:01;;;;;;;7.83;7.23;;;;;;;-1.37;100.00;98324.22;4988396;28;20273;-67
2021/03/17 02:36:34;;;;;;;9.27;7.20;;;;;;;-1.31;100.00;98323.06;4983089;28;20668;-69
2021/03/17 02:39:06;;;;;;;7.80;7.10;;;;;;;-1.35;100.00;98319.78;4992865;28;20209;-68
2021/03/17 02:41:39;;;;;;;8.37;7.57;;;;;;;-1.34;100.00;98321.47;4987650;28;20578;-68
2021/03/17 02:44:09;;;;;;;8.60;7.40;;;;;;;-1.37;100.00;98319.03;4988364;28;20222;-68
2021/03/17 02:46:37;;;;;;;9.73;8.40;;;;;;;-1.39;100.00;98322.63;4985532;28;20220;-69
2021/03/17 02:49:07;;;;;;;8.93;8.03;;;;;;;-1.43;100.00;98334.09;4980702;28;20323;-69
2021/03/17 02:51:39;;;;;;;8.33;7.63;;;;;;;-1.53;100.00;98324.19;4987235;28;20232;-68
2021/03/17 02:54:10;;;;;;;9.50;8.50;;;;;;;-1.60;100.00;98323.66;4984532;28;20765;-69
2021/03/17 02:56:44;;;;;;;11.17;8.77;;;;;;;-1.60;100.00;98318.47;4984193;28;20220;-69
2021/03/17 02:59:14;;;;;;;8.27;7.57;;;;;;;-1.66;100.00;98316.19;4998606;28;20216;-68
2021/03/17 03:01:42;;;;;;;8.77;7.87;;;;;;;-1.65;100.00;98315.25;4988347;28;20209;-68
2021/03/17 03:04:11;;;;;;;9.73;8.50;;;;;;;-1.72;100.00;98313.91;4987245;28;20896;-68
2021/03/17 03:06:40;;;;;;;8.90;8.00;;;;;;;-1.70;100.00;98317.25;4982857;28;20239;-68
2021/03/17 03:09:08;;;;;;;8.73;7.93;;;;;;;-1.82;100.00;98321.31;4983257;28;20214;-68
2021/03/17 03:11:35;;;;;;;8.60;7.83;;;;;;;-1.84;100.00;98320.56;4986608;28;20230;-68
2021/03/17 03:14:04;;;;;;;9.57;8.57;;;;;;;-1.74;100.00;98323.53;4986669;28;20351;-67
2021/03/17 03:16:32;;;;;;;9.37;8.47;;;;;;;-1.76;100.00;98320.19;4996498;28;20217;-68
2021/03/17 03:19:06;;;;;;;11.43;9.20;;;;;;;-1.84;100.00;98317.97;4993687;28;20244;-68
2021/03/17 03:21:34;;;;;;;10.20;9.20;;;;;;;-1.80;100.00;98322.06;4982704;28;20674;-68
2021/03/17 03:24:02;;;;;;;9.93;8.97;;;;;;;-1.69;100.00;98316.34;4981670;28;20237;-68
2021/03/17 03:26:32;;;;;;;8.73;7.97;;;;;;;-1.63;100.00;98318.63;4982758;28;20205;-68
2021/03/17 03:29:00;;;;;;;10.27;9.27;;;;;;;-1.50;100.00;98320.59;4984384;28;20446;-67
2021/03/17 03:31:27;;;;;;;9.93;8.93;;;;;;;-1.40;100.00;98321.78;4997641;28;20241;-68
2021/03/17 03:33:54;;;;;;;10.13;9.13;;;;;;;-1.33;100.00;98320.53;4987218;28;20784;-68
2021/03/17 03:36:22;;;;;;;9.53;8.70;;;;;;;-1.28;100.00;98324.66;4991569;28;20212;-67
2021/03/17 03:38:49;;;;;;;10.93;9.87;;;;;;;-1.17;100.00;98327.53;4986302;28;20213;-68
2021/03/17 03:41:16;;;;;;;9.03;8.17;;;;;;;-1.11;100.00;98323.75;4986800;28;20629;-67
2021/03/17 03:43:43;;;;;;;9.43;8.53;;;;;;;-1.12;100.00;98324.69;4985261;28;20624;-69
2021/03/17 03:46:21;;;;;;;11.60;9.20;;;;;;;-1.12;100.00;98329.88;4984056;28;20209;-69
2021/03/17 03:48:49;;;;;;;10.97;9.00;;;;;;;-1.16;100.00;98329.19;4988967;28;20206;-70
2021/03/17 03:51:18;;;;;;;9.40;8.43;;;;;;;-0.98;100.00;98331.75;4983668;28;20229;-69
2021/03/17 03:54:06;;;;;;;10.20;9.10;;;;;;;-0.89;100.00;98329.50;4983813;28;20230;-67
2021/03/17 03:56:39;;;;;;;10.23;9.23;;;;;;;-1.01;100.00;98327.53;4989085;28;20574;-68
2021/03/17 03:59:09;;;;;;;9.40;8.63;;;;;;;-0.98;100.00;98336.97;4982940;28;20220;-68
2021/03/17 04:01:39;;;;;;;10.20;8.83;;;;;;;-0.91;100.00;98338.31;4996829;28;20221;-69
2021/03/17 04:04:10;;;;;;;10.97;9.97;;;;;;;-0.78;100.00;98341.91;4998759;28;20728;-67
2021/03/17 04:06:38;;;;;;;10.83;9.73;;;;;;;-0.78;100.00;98341.91;4983687;28;20673;-68
2021/03/17 04:09:07;;;;;;;9.07;8.23;;;;;;;-0.82;100.00;98336.97;4982001;28;20210;-69
2021/03/17 04:11:34;;;;;;;10.57;9.50;;;;;;;-0.73;100.00;98339.91;4995719;28;20892;-69
2021/03/17 04:14:05;;;;;;;11.53;10.37;;;;;;;-0.72;100.00;98345.94;4992504;28;20237;-67
2021/03/17 04:16:38;;;;;;;10.03;8.60;;;;;;;-0.65;100.00;98343.84;4994202;28;20271;-69
2021/03/17 04:19:06;;;;;;;10.70;9.53;;;;;;;-0.71;100.00;98339.81;4988330;28;20217;-69
2021/03/17 04:21:36;;;;;;;10.70;9.60;;;;;;;-0.62;100.00;98339.31;4986695;28;20213;-69
2021/03/17 04:24:05;;;;;;;11.03;9.97;;;;;;;-0.63;100.00;98340.22;4989226;28;20249;-68
2021/03/17 04:26:33;;;;;;;11.67;10.17;;;;;;;-0.66;100.00;98329.16;4985624;28;20689;-68
2021/03/17 04:29:02;;;;;;;12.17;9.87;;;;;;;-0.69;100.00;98329.34;4983019;28;20406;-67
2021/03/17 04:31:30;;;;;;;10.43;9.43;;;;;;;-0.69;100.00;98330.16;4983180;28;20372;-69
2021/03/17 04:33:59;;;;;;;11.43;10.20;;;;;;;-0.72;100.00;98332.94;4993074;28;20261;-68
2021/03/17 04:36:26;;;;;;;11.13;10.03;;;;;;;-0.76;100.00;98334.88;4984457;28;20407;-69
2021/03/17 04:38:54;;;;;;;14.63;9.37;;;;;;;-0.84;100.00;98331.00;4986615;28;20541;-68
2021/03/17 04:41:22;;;;;;;12.30;11.00;;;;;;;-0.86;100.00;98331.06;4986445;28;20599;-68
2021/03/17 04:43:49;;;;;;;12.47;10.57;;;;;;;-0.86;100.00;98330.25;4990849;28;20235;-69
2021/03/17 04:46:17;;;;;;;10.70;9.60;;;;;;;-0.84;100.00;98337.03;4987100;28;20240;-67
2021/03/17 04:48:46;;;;;;;11.80;10.07;;;;;;;-0.69;100.00;98332.75;4985216;28;20630;-68
2021/03/17 04:51:16;;;;;;;11.37;10.20;;;;;;;-0.69;100.00;98331.94;4992973;28;20230;-69
2021/03/17 04:53:43;;;;;;;11.40;10.10;;;;;;;-0.60;100.00;98329.63;4984577;28;20225;-69
2021/03/17 04:56:11;;;;;;;13.00;10.50;;;;;;;-0.71;100.00;98323.38;4987121;28;20201;-70
2021/03/17 04:58:40;;;;;;;12.27;10.37;;;;;;;-0.75;100.00;98320.09;4987559;28;20236;-67
2021/03/17 05:01:11;;;;;;;11.90;10.30;;;;;;;-0.79;100.00;98321.19;4988965;28;20206;-69
2021/03/17 05:03:40;;;;;;;13.30;10.77;;;;;;;-0.74;100.00;98330.44;4995924;28;20315;-69
2021/03/17 05:06:07;;;;;;;13.20;10.77;;;;;;;-0.67;100.00;98341.31;4992111;28;20205;-69
2021/03/17 05:08:37;;;;;;;14.90;12.17;;;;;;;-0.76;100.00;98339.22;4983972;28;20213;-69
2021/03/17 05:11:05;;;;;;;12.57;11.03;;;;;;;-0.48;100.00;98338.53;4991184;28;20223;-70
2021/03/17 05:13:32;;;;;;;14.63;13.07;;;;;;;-0.38;100.00;98338.88;4988345;28;20229;-68
2021/03/17 05:16:01;;;;;;;16.13;12.60;;;;;;;-0.33;100.00;98344.66;4994778;28;20237;-67
2021/03/17 05:18:29;;;;;;;15.33;13.77;;;;;;;-0.35;100.00;98338.69;4988024;28;20235;-68
2021/03/17 05:20:56;;;;;;;18.67;13.63;;;;;;;-0.10;100.00;98339.06;4983363;28;20300;-69
2021/03/17 05:23:23;;;;;;;15.53;13.93;;;;;;;-0.16;100.00;98335.06;5000930;28;20228;-68
2021/03/17 05:25:53;;;;;;;14.63;13.03;;;;;;;-0.19;100.00;98343.00;4994586;28;20875;-70
2021/03/17 05:28:22;;;;;;;20.77;14.57;;;;;;;-0.20;100.00;98338.72;4995216;28;20378;-68
2021/03/17 05:30:50;;;;;;;18.87;14.73;;;;;;;-0.12;100.00;98339.16;4996851;28;20244;-69
2021/03/17 05:33:22;;;;;;;17.97;15.33;;;;;;;-0.25;100.00;98335.56;4990696;28;20230;-69
2021/03/17 05:35:49;;;;;;;17.37;15.37;;;;;;;-0.28;100.00;98336.59;4985920;28;20209;-69
2021/03/17 05:38:17;;;;;;;18.63;14.80;;;;;;;-0.08;100.00;98338.06;4986853;28;20218;-69
2021/03/17 05:40:44;;;;;;;18.70;16.03;;;;;;;-0.17;100.00;98338.59;4987729;28;20649;-69
2021/03/17 05:43:11;;;;;;;17.60;15.80;;;;;;;-0.01;100.00;98341.97;5001753;28;20225;-69
2021/03/17 05:45:40;;;;;;;19.43;16.80;;;;;;;-0.03;100.00;98353.41;4996202;28;20232;-71
2021/03/17 05:48:10;;;;;;;19.80;15.90;;;;;;;0.06;100.00;98345.09;4990488;28;20209;-68
2021/03/17 05:50:38;;;;;;;21.50;17.10;;;;;;;0.09;100.00;98349.25;4992496;28;20264;-69
2021/03/17 05:53:06;;;;;;;21.30;16.87;;;;;;;-0.05;100.00;98361.31;4978193;28;20222;-70
2021/03/17 05:55:34;;;;;;;20.00;16.63;;;;;;;-0.09;100.00;98358.97;4978191;28;20303;-70
2021/03/17 05:58:01;;;;;;;22.83;16.70;;;;;;;-0.05;100.00;98365.69;4994812;28;20204;-69
2021/03/17 06:00:28;;;;;;;24.43;18.33;;;;;;;-0.01;100.00;98370.63;4979614;28;20216;-71
2021/03/17 06:02:56;;;;;;;23.63;17.80;;;;;;;-0.12;100.00;98366.97;4989840;28;20217;-71
2021/03/17 06:05:24;;;;;;;21.43;17.70;;;;;;;-0.03;100.00;98372.50;4989542;28;20208;-70
2021/03/17 06:08:00;;;;;;;25.03;19.03;;;;;;;-0.09;100.00;98366.78;4991707;28;20201;-71
2021/03/17 06:10:28;;;;;;;24.50;18.43;;;;;;;-0.12;100.00;98370.41;4992017;28;20252;-71
2021/03/17 06:13:00;;;;;;;23.93;17.40;;;;;;;-0.06;100.00;98367.47;4991115;28;20518;-71
2021/03/17 06:15:28;;;;;;;23.97;17.53;;;;;;;-0.12;100.00;98378.25;4979433;28;20201;-71
2021/03/17 06:17:58;;;;;;;18.20;15.87;;;;;;;-0.04;100.00;98365.59;4977654;28;20205;-70
2021/03/17 06:20:26;;;;;;;21.13;16.33;;;;;;;-0.01;100.00;98377.59;4984970;28;20205;-71
2021/03/17 06:22:53;;;;;;;22.73;16.90;;;;;;;-0.05;100.00;98373.50;4996444;28;20213;-70
2021/03/17 06:25:21;;;;;;;25.50;17.67;;;;;;;-0.20;100.00;98377.81;4990126;28;20719;-69
2021/03/17 06:27:49;;;;;;;25.23;17.93;;;;;;;-0.15;100.00;98379.25;4991003;28;20220;-71
2021/03/17 06:30:16;;;;;;;26.53;21.10;;;;;;;-0.06;100.00;98382.25;4979270;28;20245;-71
2021/03/17 06:32:43;;;;;;;23.03;18.10;;;;;;;-0.11;100.00;98379.06;4979768;28;20205;-71
2021/03/17 06:35:19;;;;;;;20.70;16.63;;;;;;;-0.06;100.00;98388.31;4996091;28;20205;-69
2021/03/17 06:37:51;;;;;;;21.90;17.33;;;;;;;-0.08;100.00;98384.94;4986278;28;20213;-70
2021/03/17 06:40:27;;;;;;;23.20;17.80;;;;;;;-0.15;100.00;98388.84;4998581;28;20200;-70
2021/03/17 06:42:55;;;;;;;26.77;18.27;;;;;;;0.02;100.00;98395.69;4987781;28;20239;-70
2021/03/17 06:45:35;;;;;;;23.83;17.90;;;;;;;-0.04;100.00;98396.03;4994170;28;20201;-67
2021/03/17 06:48:24;;;;;;;27.60;18.83;;;;;;;-0.12;100.00;98393.88;4993070;28;20676;-69
2021/03/17 06:51:02;;;;;;;22.13;18.33;;;;;;;0.14;100.00;98399.34;4989574;28;20315;-70
2021/03/17 06:53:36;;;;;;;22.77;17.17;;;;;;;0.11;100.00;98397.78;4994724;28;20228;-72
2021/03/17 06:56:17;;;;;;;27.97;19.73;;;;;;;0.03;100.00;98397.38;4984453;28;20719;-69
2021/03/17 06:58:46;;;;;;;23.87;18.97;;;;;;;-0.04;100.00;98398.63;4985542;28;20243;-71
2021/03/17 07:01:24;;;;;;;28.03;20.33;;;;;;;0.13;100.00;98401.13;4995390;28;20213;-71
2021/03/17 07:03:56;;;;;;;28.83;19.20;;;;;;;0.05;100.00;98397.28;4976125;28;20230;-71
2021/03/17 07:06:23;;;;;;;25.13;19.00;;;;;;;0.24;100.00;98407.47;5001169;28;20206;-69
2021/03/17 07:08:50;;;;;;;27.53;21.60;;;;;;;0.30;100.00;98406.31;4991958;28;20562;-70
2021/03/17 07:11:29;;;;;;;25.60;19.70;;;;;;;0.22;100.00;98412.81;4985625;28;20232;-71
2021/03/17 07:14:00;;;;;;;25.80;19.93;;;;;;;0.27;100.00;98415.13;4995597;28;20235;-68
2021/03/17 07:16:35;;;;;;;25.70;18.93;;;;;;;0.39;100.00;98414.44;4993159;28;20462;-69
2021/03/17 07:19:33;;;;;;;26.33;19.50;;;;;;;0.52;100.00;98427.56;4992966;28;20224;-69
2021/03/17 07:22:08;;;;;;;23.93;17.83;;;;;;;0.55;100.00;98422.16;4991015;28;20208;-69
2021/03/17 07:24:36;;;;;;;26.00;18.27;;;;;;;0.37;100.00;98431.09;4995945;28;20224;-71
2021/03/17 07:27:17;;;;;;;25.63;19.40;;;;;;;0.47;100.00;98419.19;5001519;28;20205;-69
2021/03/17 07:29:46;;;;;;;23.50;20.00;;;;;;;0.42;100.00;98427.28;4995448;28;20208;-71
2021/03/17 07:32:14;;;;;;;25.63;18.43;;;;;;;0.45;100.00;98425.44;5000373;28;20220;-70
2021/03/17 07:34:42;;;;;;;25.00;16.70;;;;;;;0.45;100.00;98425.44;5001375;28;20689;-71
2021/03/17 07:37:09;;;;;;;20.43;17.13;;;;;;;0.56;100.00;98426.47;5001934;28;20260;-70
2021/03/17 07:39:38;;;;;;;22.10;16.93;;;;;;;0.69;100.00;98425.75;4993327;28;20212;-70
2021/03/17 07:42:06;;;;;;;22.83;16.90;;;;;;;0.63;100.00;98433.94;4998240;28;20204;-72
2021/03/17 07:44:36;;;;;;;21.60;17.00;;;;;;;0.64;100.00;98435.63;4998175;28;20242;-69
2021/03/17 07:47:04;;;;;;;22.93;17.40;;;;;;;0.73;100.00;98432.47;4997015;28;20612;-71
2021/03/17 07:49:48;;;;;;;20.77;17.47;;;;;;;0.74;100.00;98434.16;5002439;28;20230;-70
2021/03/17 07:52:18;;;;;;;19.63;14.47;;;;;;;0.79;100.00;98434.72;5001765;28;20369;-72
2021/03/17 07:54:50;;;;;;;20.13;14.07;;;;;;;0.72;100.00;98447.28;4998447;28;20604;-71
2021/03/17 07:57:17;;;;;;;19.03;14.97;;;;;;;0.69;100.00;98450.06;4992690;28;20289;-70
2021/03/17 07:59:50;;;;;;;18.93;15.20;;;;;;;0.79;100.00;98457.38;4982954;28;20214;-69
2021/03/17 08:02:18;;;;;;;17.60;13.97;;;;;;;0.92;100.00;98453.09;4991710;28;20565;-71
2021/03/17 08:04:46;;;;;;;15.47;13.97;;;;;;;0.90;100.00;98451.50;4983891;28;20324;-72
2021/03/17 08:07:15;;;;;;;18.00;13.40;;;;;;;0.97;100.00;98445.81;4994638;28;20842;-69
2021/03/17 08:09:43;;;;;;;15.97;12.93;;;;;;;0.91;100.00;98455.78;4995091;28;20209;-70
2021/03/17 08:12:11;;;;;;;15.37;13.73;;;;;;;0.80;100.00;98449.44;4985322;28;20229;-70
2021/03/17 08:14:41;;;;;;;17.13;12.57;;;;;;;0.96;100.00;98453.75;5000492;28;20324;-72
2021/03/17 08:17:11;;;;;;;16.33;11.90;;;;;;;0.98;100.00;98457.13;4987746;28;20548;-69
2021/03/17 08:20:12;;;;;;;13.80;12.30;;;;;;;1.04;100.00;98448.06;4989187;28;20210;-69
2021/03/17 08:22:39;;;;;;;12.17;10.87;;;;;;;0.93;100.00;98456.53;4999127;28;20207;-69
2021/03/17 08:25:09;;;;;;;12.37;11.13;;;;;;;0.95;100.00;98458.13;5000722;28;20216;-71
2021/03/17 08:27:36;;;;;;;15.10;12.37;;;;;;;1.13;100.00;98458.78;4999340;28;20291;-69
2021/03/17 08:30:14;;;;;;;13.67;12.37;;;;;;;1.32;100.00;98449.00;4991443;28;20217;-70
2021/03/17 08:33:00;;;;;;;12.77;11.10;;;;;;;1.39;100.00;98443.31;4996794;28;20637;-70
2021/03/17 08:36:07;;;;;;;12.00;10.80;;;;;;;1.44;100.00;98440.41;4997839;28;20216;-71
2021/03/17 08:38:59;;;;;;;11.23;10.17;;;;;;;1.31;100.00;98437.69;4996642;28;20232;-71
2021/03/17 08:41:54;;;;;;;11.17;9.97;;;;;;;1.44;100.00;98445.63;4990197;28;20573;-70
2021/03/17 08:44:23;;;;;;;13.70;10.30;;;;;;;1.56;100.00;98438.78;4989724;28;20220;-70
2021/03/17 08:46:51;;;;;;;9.60;8.60;;;;;;;1.69;100.00;98439.69;4986283;28;20241;-72
2021/03/17 08:49:30;;;;;;;9.67;8.53;;;;;;;1.83;100.00;98433.59;4988756;28;20212;-70
2021/03/17 08:52:02;;;;;;;9.43;8.53;;;;;;;2.02;100.00;98437.66;4998442;28;20665;-71
2021/03/17 08:54:52;;;;;;;10.13;8.00;;;;;;;2.08;97.39;98441.63;4988069;28;20705;-71
2021/03/17 08:57:20;;;;;;;10.50;7.97;;;;;;;1.98;98.62;98431.78;4994772;28;20223;-71
2021/03/17 08:59:48;;;;;;;8.50;7.13;;;;;;;2.04;97.55;98427.94;4987769;28;20209;-70
2021/03/17 09:02:20;;;;;;;8.27;7.47;;;;;;;2.03;100.00;98418.41;4989231;28;20425;-72
2021/03/17 09:04:48;;;;;;;10.43;7.70;;;;;;;2.25;94.54;98417.84;4992979;28;20454;-71
2021/03/17 09:07:16;;;;;;;9.93;7.50;;;;;;;2.35;95.08;98414.63;4997814;28;20265;-71
2021/03/17 09:09:48;;;;;;;6.77;6.10;;;;;;;2.52;90.99;98416.13;4992575;28;20216;-69
2021/03/17 09:12:16;;;;;;;8.17;6.53;;;;;;;2.49;88.05;98414.56;5004530;28;20220;-70
2021/03/17 09:14:43;;;;;;;7.50;6.77;;;;;;;2.47;91.87;98421.69;4989460;28;20230;-71
2021/03/17 09:17:23;;;;;;;7.60;6.90;;;;;;;2.89;90.00;98424.97;4990689;28;20868;-71
2021/03/17 09:20:09;;;;;;;9.10;6.90;;;;;;;2.81;92.46;98413.34;4989665;28;20212;-71
2021/03/17 09:22:39;;;;;;;7.60;6.07;;;;;;;2.79;87.20;98413.41;4985851;28;20209;-71
2021/03/17 09:25:18;;;;;;;7.27;6.10;;;;;;;3.19;87.66;98410.69;4987836;28;20293;-71
2021/03/17 09:27:51;;;;;;;6.63;6.00;;;;;;;3.21;85.95;98410.59;4983030;28;20293;-71
2021/03/17 09:30:20;;;;;;;7.23;6.27;;;;;;;3.28;80.75;98413.63;4983265;28;20587;-70
2021/03/17 09:32:47;;;;;;;10.03;6.03;;;;;;;3.06;82.35;98422.94;4995187;28;20205;-71
2021/03/17 09:35:17;;;;;;;6.53;5.63;;;;;;;2.50;82.72;98411.00;4987436;28;20605;-70
2021/03/17 09:37:44;;;;;;;5.80;5.20;;;;;;;3.07;81.43;98410.72;4999923;28;20216;-70
2021/03/17 09:40:16;;;;;;;8.97;6.30;;;;;;;3.15;84.27;98414.47;5004762;28;20209;-70
2021/03/17 09:42:43;;;;;;;5.73;5.23;;;;;;;3.19;81.93;98413.28;4987360;28;20709;-71
2021/03/17 09:45:11;;;;;;;6.13;4.77;;;;;;;2.94;79.49;98421.19;4991799;28;20703;-72
2021/03/17 09:47:40;;;;;;;5.23;4.80;;;;;;;2.84;76.60;98423.59;4996357;28;20277;-72
2021/03/17 09:50:18;;;;;;;4.80;4.40;;;;;;;2.76;75.55;98424.09;4985227;28;20300;-69
2021/03/17 09:52:45;;;;;;;5.53;4.30;;;;;;;2.96;73.56;98427.97;4983287;28;20316;-71
2021/03/17 09:55:33;;;;;;;4.10;3.80;;;;;;;3.54;68.79;98431.88;4984636;28;20645;-70
2021/03/17 09:58:06;;;;;;;6.27;4.53;;;;;;;3.28;72.16;98424.91;4984760;28;20209;-71
2021/03/17 10:00:36;;;;;;;4.60;4.27;;;;;;;3.29;71.63;98425.78;4983824;28;20220;-70
2021/03/17 10:03:11;;;;;;;5.07;4.60;;;;;;;3.15;72.03;98416.25;4990947;28;20388;-71
2021/03/17 10:05:40;;;;;;;4.53;4.10;;;;;;;3.15;69.87;98424.09;4998368;28;20213;-71
2021/03/17 10:08:08;;;;;;;4.83;4.43;;;;;;;3.73;73.56;98415.69;4991352;28;20390;-71
2021/03/17 10:10:36;;;;;;;4.50;4.00;;;;;;;3.65;67.00;98423.28;4987630;28;20555;-72
2021/03/17 10:13:04;;;;;;;3.50;3.20;;;;;;;3.40;65.62;98418.00;5002449;28;20420;-72
2021/03/17 10:15:32;;;;;;;5.57;3.67;;;;;;;2.87;66.97;98424.22;4992174;28;20286;-71
2021/03/17 10:17:59;;;;;;;3.57;3.37;;;;;;;2.90;68.00;98420.53;4985400;28;20480;-69
2021/03/17 10:20:28;;;;;;;5.63;4.03;;;;;;;2.89;69.71;98424.13;4976962;28;20201;-73
2021/03/17 10:23:00;;;;;;;3.50;3.23;;;;;;;2.85;72.87;98426.13;4993890;28;20205;-70
2021/03/17 10:25:29;;;;;;;4.57;4.17;;;;;;;2.85;70.99;98426.13;4987131;28;20205;-72
2021/03/17 10:28:04;;;;;;;5.33;4.40;;;;;;;2.63;72.17;98437.16;4984728;28;20218;-72
2021/03/17 10:30:33;;;;;;;5.50;5.00;;;;;;;2.72;75.71;98428.72;4983599;28;20201;-72
2021/03/17 10:33:02;;;;;;;4.80;3.80;;;;;;;2.57;70.06;98430.59;4991444;28;20736;-69
2021/03/17 10:35:31;;;;;;;4.87;3.27;;;;;;;2.58;69.62;98424.41;4998206;28;20203;-73
2021/03/17 10:38:00;;;;;;;3.77;2.97;;;;;;;2.40;68.52;98431.72;4995295;28;20301;-71
2021/03/17 10:40:30;;;;;;;3.10;2.80;;;;;;;2.42;68.90;98426.34;4992606;28;20200;-71
2021/03/17 10:43:06;;;;;;;2.40;2.30;;;;;;;2.26;68.11;98419.53;5000495;28;20267;-70
2021/03/17 10:45:45;;;;;;;3.07;2.87;;;;;;;2.45;68.15;98432.22;4993116;28;20212;-72
2021/03/17 10:48:15;;;;;;;3.13;2.93;;;;;;;2.47;69.14;98434.75;4985472;28;20209;-73
2021/03/17 10:50:43;;;;;;;6.23;3.00;;;;;;;2.51;68.01;98430.16;4989316;28;20681;-73
2021/03/17 10:53:19;;;;;;;3.27;2.97;;;;;;;2.44;69.09;98427.09;4998628;28;20260;-71
2021/03/17 10:55:47;;;;;;;2.83;2.60;;;;;;;2.67;66.11;98424.72;4997498;28;20208;-69
2021/03/17 10:58:15;;;;;;;2.63;2.23;;;;;;;2.64;67.60;98433.59;4995587;28;20209;-68
2021/03/17 11:00:43;;;;;;;2.50;2.40;;;;;;;2.71;68.14;98431.44;4995561;28;20626;-67
2021/03/17 11:03:26;;;;;;;2.77;2.57;;;;;;;2.80;66.42;98436.03;5000556;28;20235;-69
2021/03/17 11:06:10;;;;;;;1.90;1.80;;;;;;;2.70;62.21;98442.84;4994991;28;20292;-69
2021/03/17 11:08:38;;;;;;;5.57;2.13;;;;;;;2.52;63.98;98434.44;4991995;28;20296;-70
2021/03/17 11:11:06;;;;;;;3.03;2.53;;;;;;;2.56;65.65;98426.28;4985468;28;20640;-70
2021/03/17 11:13:41;;;;;;;2.60;2.40;;;;;;;2.53;67.42;98421.28;4995531;28;20243;-70
2021/03/17 11:16:25;;;;;;;2.37;2.17;;;;;;;2.80;67.90;98422.13;5002652;28;20291;-68
2021/03/17 11:18:54;;;;;;;2.77;2.23;;;;;;;3.04;69.00;98432.69;4997682;28;20722;-68
2021/03/17 11:21:29;;;;;;;3.83;2.37;;;;;;;3.15;67.84;98430.16;4993623;28;20207;-70
2021/03/17 11:23:58;;;;;;;2.80;2.60;;;;;;;3.32;65.11;98425.56;4999284;28;20254;-68
2021/03/17 11:26:27;;;;;;;2.30;2.10;;;;;;;3.50;64.45;98425.19;4992368;28;20212;-70
2021/03/17 11:28:56;;;;;;;2.40;2.20;;;;;;;3.79;63.07;98427.53;4993327;28;20282;-69
2021/03/17 11:31:26;;;;;;;2.87;2.10;;;;;;;3.76;61.02;98411.06;4998396;28;20299;-69
2021/03/17 11:33:53;;;;;;;3.13;2.03;;;;;;;3.66;60.74;98417.94;4994890;28;20229;-69
2021/03/17 11:36:20;;;;;;;2.10;1.70;;;;;;;4.04;59.87;98409.09;5000763;28;20201;-68
2021/03/17 11:38:48;;;;;;;3.60;1.90;;;;;;;4.01;59.00;98411.94;4991905;28;20284;-68
2021/03/17 11:41:17;;;;;;;2.07;2.00;;;;;;;4.17;57.69;98418.66;4995284;28;20288;-69